Flight Track Log - Related Links

Times and Time Zones

All times are in EDT time to prevent confusion due to time zone crossing. See the UCA4831 flight status page for this flight to view local times or setup timezone preferences in your user account.

Time Position Orientation Groundspeed Altitude Reporting Facility
EDT Latitude Longitude Course Direction KTS MPH feet Rate Location/Type
Wed 10:42:53 AM 43.1200 -77.6878 164° South 100 115 1,200  Level Cleveland Center
Wed 10:43:59 AM 43.0822 -77.6725 115° Southeast 178 205 2,600 1,374 Climbing Cleveland Center
Wed 10:45:52 AM 43.0392 -77.5436 120° Southeast 201 231 5,300 1,387 Climbing Cleveland Center
Wed 10:46:52 AM 43.0083 -77.4714 116° Southeast 208 239 6,600 1,240 Climbing Cleveland Center
Wed 10:47:53 AM 42.9833 -77.4017 118° Southeast 215 247 7,800 1,150 Climbing Cleveland Center
Wed 10:48:52 AM 42.9519 -77.3208 119° Southeast 231 266 8,900 1,160 Climbing Cleveland Center
Wed 10:49:52 AM 42.9183 -77.2378 118° Southeast 237 273 10,100 1,214 Climbing Cleveland Center
Wed 10:51:40 AM 42.8553 -77.0733 118° Southeast 254 292 12,300 1,030 Climbing New York Center
Wed 10:52:41 AM 42.8222 -76.9881 121° Southeast 254 292 13,000 347 Climbing New York Center
Wed 10:53:41 AM 42.7814 -76.8939 122° Southeast 270 311 13,000  Level New York Center
Wed 10:54:41 AM 42.7364 -76.7964 124° Southeast 290 334 13,000  Level New York Center
Wed 10:55:15 AM 42.7108 -76.7442 120° Southeast 305 351 13,000  Level Boston Center
Wed 10:56:15 AM 42.6706 -76.6481 122° Southeast 318 366 13,000  Level Boston Center
Wed 10:57:15 AM 42.6281 -76.5550 121° Southeast 305 351 13,000  Level Boston Center
Wed 10:58:15 AM 42.5856 -76.4592 120° Southeast 305 351 13,000  Level Boston Center
Wed 10:59:15 AM 42.5453 -76.3661 122° Southeast 295 339 13,000  Level Boston Center
Wed 11:00:15 AM 42.5025 -76.2733 122° Southeast 252 290 13,000  Level Boston Center
Wed 11:01:15 AM 42.4636 -76.1892 122° Southeast 266 306 13,000  Level Boston Center
Wed 11:02:15 AM 42.4228 -76.0997 122° Southeast 280 322 13,000  Level Boston Center
Wed 11:03:15 AM 42.3817 -76.0100 121° Southeast 286 329 13,000  Level Boston Center
Wed 11:04:15 AM 42.3389 -75.9122 124° Southeast 286 329 13,000  Level Boston Center
Wed 11:05:15 AM 42.2978 -75.8283 122° Southeast 281 323 13,000  Level Boston Center
Wed 11:06:15 AM 42.2567 -75.7392 120° Southeast 281 323 13,000  Level Boston Center
Wed 11:07:15 AM 42.2156 -75.6417 124° Southeast 286 329 13,000  Level Boston Center
Wed 11:08:15 AM 42.1722 -75.5553 121° Southeast 286 329 13,000  Level Boston Center
Wed 11:09:15 AM 42.1308 -75.4636 122° Southeast 281 323 13,000  Level Boston Center
Wed 11:10:15 AM 42.0875 -75.3692 122° Southeast 286 329 13,000  Level Boston Center
Wed 11:11:15 AM 42.0478 -75.2836 114° Southeast 286 329 13,000  Level Boston Center
Wed 11:12:15 AM 42.0131 -75.1786 119° Southeast 291 335 13,000  Level Boston Center
Wed 11:13:15 AM 41.9697 -75.0733 120° Southeast 297 342 13,000 -100 Level Boston Center
Wed 11:14:15 AM 41.9300 -74.9825 134° Southeast 286 329 12,800 -650 Descending Boston Center
Wed 11:15:15 AM 41.8733 -74.9047 132° Southeast 286 329 11,700 -1,200 Descending Boston Center
Wed 11:16:15 AM 41.8189 -74.8247 134° Southeast 286 329 10,400 -1,200 Descending Boston Center
Wed 11:17:15 AM 41.7642 -74.7475 146° Southeast 292 336 9,300 -1,100 Descending Boston Center
Wed 11:18:15 AM 41.7028 -74.6925 165° South 280 322 8,200 -1,000 Descending Boston Center
Wed 11:19:15 AM 41.6344 -74.6678 168° South 257 296 7,300 -1,000 Descending Boston Center
Wed 11:20:15 AM 41.5681 -74.6489 164° South 252 290 6,200 -650 Descending Boston Center
Wed 11:21:15 AM 41.5019 -74.6242 164° South 252 290 6,000 -100 Descending Boston Center
Wed 11:22:15 AM 41.4378 -74.6000 180° South 247 284 6,000  Level Boston Center
Wed 11:23:15 AM 41.3731 -74.6006 199° South 239 275 6,000  Level Boston Center
Wed 11:24:18 AM 41.3000 -74.6333 194° South 229 264 6,000  Level New York TRACON
Wed 11:25:18 AM 41.2500 -74.6500 143° Southeast 231 266 6,000  Level New York TRACON
Wed 11:26:13 AM 41.2000 -74.6000 129° Southeast 254 292 6,000  Level New York TRACON
Wed 11:27:13 AM 41.1500 -74.5167 124° Southeast 251 289 6,000 -50 Level New York TRACON
Wed 11:28:13 AM 41.1167 -74.4500 135° Southeast 249 287 5,900 -432 Descending New York TRACON
Wed 11:29:18 AM 41.0667 -74.3833 135° Southeast 254 292 5,100 -650 Descending New York TRACON
Wed 11:30:13 AM 41.0167 -74.3167 135° Southeast 246 283 4,600 -550 Descending New York TRACON
Wed 11:31:18 AM 40.9667 -74.2500 123° Southeast 240 276 4,000 -288 Descending New York TRACON
Wed 11:32:18 AM 40.9333 -74.1833 135° Southeast 231 266 4,000 -100 Level New York TRACON
Wed 11:33:18 AM 40.8833 -74.1167 153° Southeast 226 260 3,800 -600 Descending New York TRACON
Wed 11:34:18 AM 40.8333 -74.0833 201° Southwest 216 249 2,800 -835 Descending New York TRACON
Wed 11:35:13 AM 40.8000 -74.1000 207° Southwest 193 222 2,200 -887 Descending New York TRACON
Wed 11:36:13 AM 40.7500 -74.1333 201° Southwest 190 219 1,100 -900 Descending New York TRACON
Wed 11:37:13 AM 40.7167 -74.1500 201° Southwest 124 143 400 -700 Descending New York TRACON

Login

Don't have an account? Register now (free) for customized features, flight alerts, and more!